Terminal Aerodrome Forecast
Issued by NWS

Home | Current Version | Previous Version | Text Only | Print | Product List | Glossary On
Versions: 1 2 3 4 5 6 7 8 9 10 11 12 13 14 15 16 17 18 19 20
000
FTUS44 KLIX 230520
TAFGPT
TAF
KGPT 230520Z 2306/2406 07003KT 5SM -RA BR BKN018 BKN050 OVC110
     FM230800 19010G19KT P6SM SHRA VCTS BKN015CB OVC040
     FM231200 24011G20KT P6SM SHRA VCSH BKN015 OVC030
     FM231600 26009KT 6SM SHRA VCTS OVC020CB
     FM232200 26009KT P6SM SCT035=

USA.gov is the U.S. government's official web portal to all federal, state and local government web resources and services.